Time;durP1;ratioP1;P1;durP2;ratioP2;P2;SDS_P1;SDS_P2;PMS_P1;PMS_P2;Temp;Humidity;BMP_temperature;BMP_pressure;BME280_temperature;BME280_humidity;BME280_pressure;Samples;Min_cycle;Max_cycle;Signal;HPM_P1;HPM_P2
2022/11/10 00:01:08;;;;;;;3.13;1.23;;;;;;;;;;4977512;28;20224;-64
2022/11/10 00:03:36;;;;;;;1.90;1.40;;;;;;;;;;4986992;28;20637;-64
2022/11/10 00:06:08;;;;;;;3.20;1.93;;;;;;;;;;4972145;28;20227;-64
2022/11/10 00:08:35;;;;;;;4.20;3.20;;;;;;;;;;4975100;28;20228;-63
2022/11/10 00:11:05;;;;;;;5.13;2.00;;;;;;;;;;4968830;28;20231;-63
2022/11/10 00:13:34;;;;;;;1.67;1.40;;;;;;;;;;4974194;28;20682;-64
2022/11/10 00:18:49;;;;;;;5.70;3.93;;;;;;;;;;4986428;28;20328;-65
2022/11/10 00:21:17;;;;;;;2.10;1.40;;;;;;;;;;4970310;28;20234;-64
2022/11/10 00:23:48;;;;;;;4.17;1.50;;;;;;;;;;4967548;28;20298;-63
2022/11/10 00:26:17;;;;;;;4.83;1.60;;;;;;;;;;4970337;28;20207;-62
2022/11/10 00:28:45;;;;;;;1.73;1.40;;;;;;;;;;4970392;28;20220;-63
2022/11/10 00:31:12;;;;;;;3.33;1.40;;;;;;;;;;4970085;28;20293;-63
2022/11/10 00:33:41;;;;;;;3.20;1.50;;;;;;;;;;4973098;28;20296;-62
2022/11/10 00:36:08;;;;;;;3.50;1.77;;;;;;;;;;4976221;28;21272;-63
2022/11/10 00:38:35;;;;;;;4.00;1.60;;;;;;;;;;4986705;28;20200;-63
2022/11/10 00:41:03;;;;;;;5.90;2.30;;;;;;;;;;4993203;28;20310;-63
2022/11/10 00:43:31;;;;;;;2.07;1.63;;;;;;;;;;4992793;28;20234;-62
2022/11/10 00:45:59;;;;;;;4.50;1.90;;;;;;;;;;4989995;28;20242;-64
2022/11/10 00:48:26;;;;;;;7.27;1.43;;;;;;;;;;4984155;28;20250;-64
2022/11/10 00:50:54;;;;;;;3.77;1.57;;;;;;;;;;4970535;28;20331;-64
2022/11/10 00:53:21;;;;;;;4.67;1.60;;;;;;;;;;4972987;28;20863;-64
2022/11/10 00:55:49;;;;;;;2.20;1.37;;;;;;;;;;4971482;28;20216;-64
2022/11/10 00:58:16;;;;;;;5.03;1.47;;;;;;;;;;4970793;28;23181;-63
2022/11/10 01:00:44;;;;;;;3.90;1.40;;;;;;;;;;4970590;28;20225;-64
2022/11/10 01:03:15;;;;;;;2.20;1.50;;;;;;;;;;4971687;28;20214;-62
2022/11/10 01:05:43;;;;;;;3.70;1.50;;;;;;;;;;4989254;28;20290;-62
2022/11/10 01:08:11;;;;;;;6.07;1.70;;;;;;;;;;4967977;28;20294;-64
2022/11/10 01:10:38;;;;;;;2.57;1.50;;;;;;;;;;4964799;28;20332;-62
2022/11/10 01:13:05;;;;;;;3.90;1.40;;;;;;;;;;4972503;28;20216;-64
2022/11/10 01:15:33;;;;;;;4.40;1.70;;;;;;;;;;4971001;28;20218;-63
2022/11/10 01:18:00;;;;;;;2.03;1.33;;;;;;;;;;4976021;28;20232;-62
2022/11/10 01:20:28;;;;;;;5.00;1.40;;;;;;;;;;4989031;28;20599;-64
2022/11/10 01:22:55;;;;;;;4.70;1.77;;;;;;;;;;4974468;28;20278;-63
2022/11/10 01:25:23;;;;;;;13.83;6.60;;;;;;;;;;4968633;28;20290;-66
2022/11/10 01:27:51;;;;;;;3.73;1.77;;;;;;;;;;4966688;28;20296;-63
2022/11/10 01:30:19;;;;;;;3.87;2.70;;;;;;;;;;4967509;28;20227;-64
2022/11/10 01:32:46;;;;;;;5.53;5.03;;;;;;;;;;4972346;28;20207;-62
2022/11/10 01:35:14;;;;;;;3.40;2.90;;;;;;;;;;4960357;28;20896;-62
2022/11/10 01:37:42;;;;;;;6.97;4.17;;;;;;;;;;4973400;28;20250;-61
2022/11/10 01:40:10;;;;;;;3.80;2.00;;;;;;;;;;4981983;28;20219;-64
2022/11/10 01:42:42;;;;;;;1.90;1.37;;;;;;;;;;4986618;28;20212;-62
2022/11/10 01:45:22;;;;;;;3.73;1.70;;;;;;;;;;4981099;28;20211;-63
2022/11/10 01:48:05;;;;;;;4.63;3.97;;;;;;;;;;4963692;28;20215;-63
2022/11/10 01:50:34;;;;;;;4.57;1.70;;;;;;;;;;4962446;28;20331;-62
2022/11/10 01:53:03;;;;;;;3.73;1.90;;;;;;;;;;4975207;28;20267;-66
2022/11/10 01:55:30;;;;;;;3.03;1.70;;;;;;;;;;4976675;28;20298;-63
2022/11/10 01:57:58;;;;;;;3.93;1.60;;;;;;;;;;5004347;28;20314;-63
2022/11/10 02:00:25;;;;;;;4.30;1.87;;;;;;;;;;4990567;28;20310;-62
2022/11/10 02:03:14;;;;;;;4.30;2.00;;;;;;;;;;4992187;28;20687;-64
2022/11/10 02:05:43;;;;;;;2.70;1.90;;;;;;;;;;4981890;28;20235;-64
2022/11/10 02:08:14;;;;;;;2.57;1.80;;;;;;;;;;4965939;28;20302;-62
2022/11/10 02:10:42;;;;;;;5.97;2.53;;;;;;;;;;4967309;28;20254;-62
2022/11/10 02:13:10;;;;;;;6.07;5.40;;;;;;;;;;4988898;28;20338;-63
2022/11/10 02:15:37;;;;;;;4.43;3.93;;;;;;;;;;4969650;28;20297;-64
2022/11/10 02:18:05;;;;;;;4.13;2.60;;;;;;;;;;4972881;28;20219;-64
2022/11/10 02:20:32;;;;;;;7.47;2.20;;;;;;;;;;4974232;28;20326;-64
2022/11/10 02:23:10;;;;;;;2.40;2.20;;;;;;;;;;4971669;28;20550;-61
2022/11/10 02:25:38;;;;;;;2.30;2.00;;;;;;;;;;4971289;28;20226;-62
2022/11/10 02:28:05;;;;;;;4.53;2.73;;;;;;;;;;4974230;28;20307;-64
2022/11/10 02:30:32;;;;;;;3.30;2.13;;;;;;;;;;4989489;28;20231;-63
2022/11/10 02:33:01;;;;;;;4.70;2.80;;;;;;;;;;4980099;28;20209;-62
2022/11/10 02:35:29;;;;;;;2.77;2.40;;;;;;;;;;4975211;28;20216;-63
2022/11/10 02:37:56;;;;;;;8.37;4.63;;;;;;;;;;4992832;28;20644;-64
2022/11/10 02:40:23;;;;;;;5.50;2.57;;;;;;;;;;4991904;28;20273;-63
2022/11/10 02:42:51;;;;;;;3.23;2.00;;;;;;;;;;4989802;28;20195;-64
2022/11/10 02:45:18;;;;;;;2.13;1.93;;;;;;;;;;4989829;28;20268;-63
2022/11/10 02:47:45;;;;;;;3.80;1.97;;;;;;;;;;4977516;28;20218;-63
2022/11/10 02:50:12;;;;;;;2.40;2.10;;;;;;;;;;4974274;28;20232;-63
2022/11/10 02:52:40;;;;;;;3.97;2.40;;;;;;;;;;4968812;28;20877;-64
2022/11/10 02:55:08;;;;;;;4.07;2.27;;;;;;;;;;4972120;28;20694;-62
2022/11/10 02:57:37;;;;;;;3.13;2.73;;;;;;;;;;4971610;28;20227;-64
2022/11/10 03:00:05;;;;;;;2.47;2.27;;;;;;;;;;4971954;28;20595;-63
2022/11/10 03:02:33;;;;;;;2.87;2.40;;;;;;;;;;4983099;28;20230;-63
2022/11/10 03:05:00;;;;;;;5.43;2.20;;;;;;;;;;4968692;28;20642;-62
2022/11/10 03:07:27;;;;;;;3.30;2.10;;;;;;;;;;4974305;28;20299;-62
2022/11/10 03:09:55;;;;;;;2.97;2.23;;;;;;;;;;4968129;28;20207;-62
2022/11/10 03:12:22;;;;;;;3.53;2.33;;;;;;;;;;4974003;28;20212;-61
2022/11/10 03:14:49;;;;;;;2.17;1.97;;;;;;;;;;4969492;28;20297;-62
2022/11/10 03:17:18;;;;;;;2.60;2.10;;;;;;;;;;4973803;28;20227;-63
2022/11/10 03:19:45;;;;;;;3.70;2.47;;;;;;;;;;4969731;28;21084;-64
2022/11/10 03:22:13;;;;;;;2.47;2.27;;;;;;;;;;4970521;28;20863;-64
2022/11/10 03:24:41;;;;;;;6.57;1.90;;;;;;;;;;4971487;28;20211;-64
2022/11/10 03:27:08;;;;;;;3.33;2.27;;;;;;;;;;4989460;28;20657;-63
2022/11/10 03:29:36;;;;;;;4.43;1.90;;;;;;;;;;4969700;28;20235;-64
2022/11/10 03:32:03;;;;;;;4.30;1.80;;;;;;;;;;4970332;28;21199;-63
2022/11/10 03:34:30;;;;;;;3.27;1.90;;;;;;;;;;4972360;28;20207;-64
2022/11/10 03:36:58;;;;;;;4.10;1.77;;;;;;;;;;4969976;28;20204;-63
2022/11/10 03:39:26;;;;;;;3.97;2.00;;;;;;;;;;4972885;28;20326;-64
2022/11/10 03:41:54;;;;;;;4.20;2.13;;;;;;;;;;4968072;28;20784;-62
2022/11/10 03:44:21;;;;;;;4.47;1.80;;;;;;;;;;4966184;28;20358;-63
2022/11/10 03:46:48;;;;;;;3.27;2.00;;;;;;;;;;4969633;28;20220;-62
2022/11/10 03:49:18;;;;;;;2.17;1.63;;;;;;;;;;4973023;28;20655;-63
2022/11/10 03:51:46;;;;;;;2.67;1.80;;;;;;;;;;4967603;28;20451;-63
2022/11/10 03:54:13;;;;;;;3.93;2.00;;;;;;;;;;4970497;28;20212;-62
2022/11/10 03:56:41;;;;;;;2.83;1.80;;;;;;;;;;4964262;28;20274;-63
2022/11/10 03:59:08;;;;;;;3.90;1.97;;;;;;;;;;4986691;28;20334;-64
2022/11/10 04:01:35;;;;;;;3.60;2.00;;;;;;;;;;4969204;28;20257;-64
2022/11/10 04:04:03;;;;;;;2.83;1.83;;;;;;;;;;4964871;28;20687;-64
2022/11/10 04:09:16;;;;;;;1.93;1.70;;;;;;;;;;4984705;28;20211;-63
2022/11/10 04:17:16;;;;;;;4.53;2.27;;;;;;;;;;4988278;28;20228;-64
2022/11/10 04:19:44;;;;;;;7.70;2.37;;;;;;;;;;4967898;28;20773;-64
2022/11/10 04:23:25;;;;;;;3.53;2.60;;;;;;;;;;4975553;28;20322;-64
2022/11/10 04:24:58;;;;;;;5.23;3.20;;;;;;;;;;4988094;28;20211;-64
2022/11/10 04:27:25;;;;;;;4.90;3.23;;;;;;;;;;4973824;28;20323;-64
2022/11/10 04:29:53;;;;;;;4.83;3.10;;;;;;;;;;4970669;28;20570;-64
2022/11/10 04:32:20;;;;;;;4.13;2.97;;;;;;;;;;4975783;28;20214;-61
2022/11/10 04:34:51;;;;;;;3.53;2.10;;;;;;;;;;4965458;28;20690;-64
2022/11/10 04:37:18;;;;;;;3.07;2.00;;;;;;;;;;4975330;28;20261;-62
2022/11/10 04:39:45;;;;;;;2.00;1.80;;;;;;;;;;4998850;28;20265;-62
2022/11/10 04:42:12;;;;;;;2.03;1.90;;;;;;;;;;4979619;28;20749;-64
2022/11/10 04:44:40;;;;;;;2.57;2.20;;;;;;;;;;4976363;28;20816;-61
2022/11/10 04:47:07;;;;;;;2.73;2.43;;;;;;;;;;4972279;28;20207;-61
2022/11/10 04:49:38;;;;;;;5.43;4.30;;;;;;;;;;4983624;28;20219;-63
2022/11/10 04:52:05;;;;;;;6.60;4.53;;;;;;;;;;4979889;28;20230;-62
2022/11/10 04:54:32;;;;;;;5.37;4.17;;;;;;;;;;4964855;28;20299;-63
2022/11/10 04:57:00;;;;;;;5.87;2.40;;;;;;;;;;4960414;28;20837;-65
2022/11/10 04:59:27;;;;;;;91.10;3.90;;;;;;;;;;4981211;28;20315;-60
2022/11/10 05:01:55;;;;;;;72.97;3.27;;;;;;;;;;4962600;28;20238;-62
2022/11/10 05:04:22;;;;;;;8.33;1.90;;;;;;;;;;4961925;28;20306;-64
2022/11/10 05:06:49;;;;;;;5.70;3.83;;;;;;;;;;4963526;28;20207;-64
2022/11/10 05:09:17;;;;;;;46.47;5.50;;;;;;;;;;4962404;28;20270;-63
2022/11/10 05:11:44;;;;;;;13.00;4.20;;;;;;;;;;4969340;28;20219;-64
2022/11/10 05:14:11;;;;;;;5.47;3.80;;;;;;;;;;4965948;28;20226;-62
2022/11/10 05:16:39;;;;;;;4.00;3.00;;;;;;;;;;4967313;28;20212;-63
2022/11/10 05:19:06;;;;;;;10.33;7.70;;;;;;;;;;4960337;28;20768;-63
2022/11/10 05:21:33;;;;;;;17.90;11.13;;;;;;;;;;4961762;28;20608;-64
2022/11/10 05:24:01;;;;;;;19.03;13.30;;;;;;;;;;4959076;28;20326;-64
2022/11/10 05:26:28;;;;;;;11.53;9.23;;;;;;;;;;4954321;28;20199;-62
2022/11/10 05:28:55;;;;;;;17.43;6.60;;;;;;;;;;4959467;28;21724;-64
2022/11/10 05:31:24;;;;;;;10.37;6.70;;;;;;;;;;4958723;28;20943;-64
2022/11/10 05:33:52;;;;;;;11.67;7.70;;;;;;;;;;4962069;28;20696;-63
2022/11/10 05:36:19;;;;;;;26.07;7.10;;;;;;;;;;4953008;28;20310;-63
2022/11/10 05:38:46;;;;;;;13.17;6.90;;;;;;;;;;4956861;28;20223;-62
2022/11/10 05:41:14;;;;;;;10.03;7.23;;;;;;;;;;4964575;28;20230;-64
2022/11/10 05:43:41;;;;;;;9.03;7.10;;;;;;;;;;4959367;28;20271;-63
2022/11/10 05:46:08;;;;;;;11.37;7.93;;;;;;;;;;4960207;28;20219;-63
2022/11/10 05:48:36;;;;;;;10.77;6.63;;;;;;;;;;4952997;28;20218;-61
2022/11/10 05:51:03;;;;;;;6.57;5.97;;;;;;;;;;4957534;28;20221;-62
2022/11/10 05:53:31;;;;;;;7.33;4.70;;;;;;;;;;4966912;28;20741;-63
2022/11/10 05:55:59;;;;;;;5.07;3.93;;;;;;;;;;4963733;28;20210;-64
2022/11/10 05:58:27;;;;;;;4.30;3.33;;;;;;;;;;4990327;28;20235;-64
2022/11/10 06:00:54;;;;;;;5.00;3.47;;;;;;;;;;4996375;28;20321;-63
2022/11/10 06:03:21;;;;;;;4.93;3.70;;;;;;;;;;4975879;28;20213;-62
2022/11/10 06:05:49;;;;;;;5.40;4.80;;;;;;;;;;4971166;28;20306;-62
2022/11/10 06:08:16;;;;;;;4.10;3.70;;;;;;;;;;4969601;28;20217;-63
2022/11/10 06:10:44;;;;;;;5.57;4.30;;;;;;;;;;4976025;28;20621;-62
2022/11/10 06:13:11;;;;;;;8.07;4.57;;;;;;;;;;4988647;28;20207;-63
2022/11/10 06:15:39;;;;;;;7.33;5.33;;;;;;;;;;4969546;28;20277;-64
2022/11/10 06:18:06;;;;;;;7.10;5.70;;;;;;;;;;4964916;28;20321;-62
2022/11/10 06:20:36;;;;;;;6.33;5.00;;;;;;;;;;4966304;28;20243;-63
2022/11/10 06:23:05;;;;;;;4.80;4.40;;;;;;;;;;4964079;28;20203;-64
2022/11/10 06:25:34;;;;;;;6.23;3.97;;;;;;;;;;4960675;28;20300;-64
2022/11/10 06:28:01;;;;;;;13.10;4.30;;;;;;;;;;4980767;28;22336;-63
2022/11/10 06:30:30;;;;;;;12.33;3.83;;;;;;;;;;4954965;28;20260;-63
2022/11/10 06:32:58;;;;;;;9.80;3.20;;;;;;;;;;4993188;28;20306;-63
2022/11/10 06:35:26;;;;;;;3.87;3.20;;;;;;;;;;4990829;28;20982;-63
2022/11/10 06:37:57;;;;;;;4.67;3.20;;;;;;;;;;4984993;28;20335;-63
2022/11/10 06:40:24;;;;;;;4.63;2.90;;;;;;;;;;4990932;28;20324;-64
2022/11/10 06:42:52;;;;;;;6.10;3.23;;;;;;;;;;4989594;28;20204;-63
2022/11/10 06:45:19;;;;;;;13.03;7.40;;;;;;;;;;4989819;28;20211;-62
2022/11/10 06:47:47;;;;;;;12.97;8.27;;;;;;;;;;4981197;28;20346;-62
2022/11/10 06:50:14;;;;;;;11.10;7.63;;;;;;;;;;4976721;28;20224;-64
2022/11/10 06:52:41;;;;;;;5.63;5.07;;;;;;;;;;4978495;28;20303;-62
2022/11/10 06:55:09;;;;;;;8.33;3.77;;;;;;;;;;4996457;28;20258;-61
2022/11/10 06:57:37;;;;;;;3.23;2.90;;;;;;;;;;4991920;28;20753;-63
2022/11/10 07:00:05;;;;;;;3.43;3.13;;;;;;;;;;4980645;28;20200;-62
2022/11/10 07:02:32;;;;;;;4.77;3.33;;;;;;;;;;4977612;28;20326;-62
2022/11/10 07:05:00;;;;;;;3.30;2.37;;;;;;;;;;4979458;28;20299;-63
2022/11/10 07:07:27;;;;;;;3.30;3.00;;;;;;;;;;4977007;28;20270;-62
2022/11/10 07:09:54;;;;;;;2.47;2.27;;;;;;;;;;4982320;28;20704;-62
2022/11/10 07:12:22;;;;;;;1.90;1.80;;;;;;;;;;4982882;28;20223;-63
2022/11/10 07:14:49;;;;;;;1.90;1.80;;;;;;;;;;4985347;28;20213;-63
2022/11/10 07:17:16;;;;;;;1.93;1.83;;;;;;;;;;4993344;28;20205;-64
2022/11/10 07:19:44;;;;;;;2.43;2.00;;;;;;;;;;4979406;28;20301;-63
2022/11/10 07:22:11;;;;;;;2.30;2.10;;;;;;;;;;4978379;28;20220;-62
2022/11/10 07:24:39;;;;;;;5.00;4.03;;;;;;;;;;4976707;28;20662;-63
2022/11/10 07:27:07;;;;;;;9.93;7.50;;;;;;;;;;4979259;28;20291;-62
2022/11/10 07:29:34;;;;;;;10.67;7.50;;;;;;;;;;4980274;28;20242;-62
2022/11/10 07:32:02;;;;;;;8.97;5.43;;;;;;;;;;4994618;28;20769;-63
2022/11/10 07:34:29;;;;;;;5.50;5.00;;;;;;;;;;4974563;28;21317;-61
2022/11/10 07:36:56;;;;;;;9.17;7.13;;;;;;;;;;4969099;28;20211;-63
2022/11/10 07:39:23;;;;;;;8.03;7.23;;;;;;;;;;4975523;28;20604;-64
2022/11/10 07:41:51;;;;;;;8.57;7.00;;;;;;;;;;4972509;28;20231;-64
2022/11/10 07:44:19;;;;;;;8.63;6.50;;;;;;;;;;4971577;28;20212;-64
2022/11/10 07:46:46;;;;;;;6.40;5.73;;;;;;;;;;4966202;28;20220;-64
2022/11/10 07:49:13;;;;;;;9.17;6.17;;;;;;;;;;4976228;28;20215;-61
2022/11/10 07:51:42;;;;;;;6.83;5.87;;;;;;;;;;4988568;28;20241;-64
2022/11/10 07:54:09;;;;;;;7.60;5.83;;;;;;;;;;4972734;28;20689;-62
2022/11/10 07:56:36;;;;;;;7.07;5.67;;;;;;;;;;4966882;28;20215;-64
2022/11/10 07:59:04;;;;;;;5.07;4.57;;;;;;;;;;4974176;28;20232;-63
2022/11/10 08:01:32;;;;;;;4.67;4.13;;;;;;;;;;4969631;28;21332;-64
2022/11/10 08:04:00;;;;;;;6.13;3.27;;;;;;;;;;4963272;28;20223;-63
2022/11/10 08:06:27;;;;;;;4.30;3.20;;;;;;;;;;4961307;28;21393;-63
2022/11/10 08:09:01;;;;;;;4.73;3.00;;;;;;;;;;4957293;28;20222;-63
2022/11/10 08:11:28;;;;;;;3.90;2.67;;;;;;;;;;4960718;28;20242;-63
2022/11/10 08:13:55;;;;;;;2.67;2.47;;;;;;;;;;4980598;28;20323;-63
2022/11/10 08:16:23;;;;;;;11.53;9.47;;;;;;;;;;4955712;28;20216;-61
2022/11/10 08:18:50;;;;;;;13.30;10.20;;;;;;;;;;4965693;28;20223;-61
2022/11/10 08:21:18;;;;;;;11.13;8.57;;;;;;;;;;4968118;28;21108;-61
2022/11/10 08:23:45;;;;;;;6.83;4.20;;;;;;;;;;4971861;28;20688;-63
2022/11/10 08:26:15;;;;;;;4.17;2.90;;;;;;;;;;4969134;28;20262;-64
2022/11/10 08:28:43;;;;;;;3.13;2.87;;;;;;;;;;4973522;28;20294;-61
2022/11/10 08:31:10;;;;;;;3.13;2.83;;;;;;;;;;4969922;28;20232;-64
2022/11/10 08:33:37;;;;;;;4.20;2.87;;;;;;;;;;4971330;28;20555;-64
2022/11/10 08:36:05;;;;;;;3.60;2.57;;;;;;;;;;4973461;28;20215;-63
2022/11/10 08:38:32;;;;;;;8.03;3.13;;;;;;;;;;4983847;28;20951;-64
2022/11/10 08:40:59;;;;;;;4.07;2.70;;;;;;;;;;4978972;28;20330;-63
2022/11/10 08:43:27;;;;;;;4.53;2.70;;;;;;;;;;4984309;28;20210;-64
2022/11/10 08:46:00;;;;;;;7.00;3.10;;;;;;;;;;4983734;28;20220;-63
2022/11/10 08:48:27;;;;;;;4.83;2.90;;;;;;;;;;4966960;28;20420;-63
2022/11/10 08:50:54;;;;;;;6.40;2.80;;;;;;;;;;4960615;28;20706;-63
2022/11/10 08:53:23;;;;;;;4.27;2.60;;;;;;;;;;4967177;28;20303;-63
2022/11/10 08:55:52;;;;;;;6.23;2.23;;;;;;;;;;4962692;28;20311;-63
2022/11/10 08:58:20;;;;;;;3.40;1.60;;;;;;;;;;4969623;28;20216;-63
2022/11/10 09:00:48;;;;;;;4.93;1.80;;;;;;;;;;4962975;28;20277;-62
2022/11/10 09:03:17;;;;;;;5.10;2.07;;;;;;;;;;4963371;28;21698;-63
2022/11/10 09:05:45;;;;;;;4.20;1.83;;;;;;;;;;4962271;28;20218;-62
2022/11/10 09:08:13;;;;;;;7.03;2.33;;;;;;;;;;4962540;28;20300;-63
2022/11/10 09:10:41;;;;;;;3.97;1.80;;;;;;;;;;4962695;28;20318;-63
2022/11/10 09:13:14;;;;;;;2.57;1.40;;;;;;;;;;4963509;28;20926;-62
2022/11/10 09:15:42;;;;;;;3.83;1.57;;;;;;;;;;4986585;28;20208;-64
2022/11/10 09:18:11;;;;;;;4.27;1.83;;;;;;;;;;4967408;28;20216;-64
2022/11/10 09:20:38;;;;;;;2.77;1.40;;;;;;;;;;4964176;28;20746;-64
2022/11/10 09:23:06;;;;;;;6.87;2.10;;;;;;;;;;4968784;28;20216;-62
2022/11/10 09:25:34;;;;;;;1.30;1.20;;;;;;;;;;4988022;28;20210;-63
2022/11/10 09:28:01;;;;;;;2.73;1.47;;;;;;;;;;4959043;28;20309;-62
2022/11/10 09:30:30;;;;;;;4.73;1.80;;;;;;;;;;4963270;28;20227;-63
2022/11/10 09:32:59;;;;;;;4.67;1.50;;;;;;;;;;4968923;28;20342;-63
2022/11/10 09:35:27;;;;;;;3.53;1.20;;;;;;;;;;4969927;28;20208;-63
2022/11/10 09:37:54;;;;;;;5.03;1.40;;;;;;;;;;4965129;28;20231;-64
2022/11/10 09:40:49;;;;;;;5.77;1.80;;;;;;;;;;4968642;28;20257;-64
2022/11/10 09:43:23;;;;;;;4.63;1.80;;;;;;;;;;4939681;28;20260;-63
2022/11/10 09:45:53;;;;;;;3.27;1.67;;;;;;;;;;4960229;28;20223;-64
2022/11/10 09:48:24;;;;;;;5.20;1.57;;;;;;;;;;4978231;28;20207;-63
2022/11/10 09:50:51;;;;;;;3.20;1.43;;;;;;;;;;4946901;28;20235;-62
2022/11/10 09:53:24;;;;;;;7.57;2.33;;;;;;;;;;4980801;28;20211;-64
2022/11/10 09:55:54;;;;;;;7.03;1.63;;;;;;;;;;4965338;28;20226;-64
2022/11/10 09:58:23;;;;;;;4.90;1.37;;;;;;;;;;4974066;28;20674;-64
2022/11/10 10:00:56;;;;;;;1.27;1.10;;;;;;;;;;4977409;28;20599;-64
2022/11/10 10:03:26;;;;;;;3.30;1.30;;;;;;;;;;4975264;28;20628;-62
2022/11/10 10:05:53;;;;;;;3.10;1.33;;;;;;;;;;4970371;28;20322;-63
2022/11/10 10:08:31;;;;;;;4.33;1.80;;;;;;;;;;4958748;28;20482;-64
2022/11/10 10:11:04;;;;;;;3.50;1.60;;;;;;;;;;4966168;28;20236;-64
2022/11/10 10:13:50;;;;;;;3.20;1.23;;;;;;;;;;4962445;28;20611;-64
2022/11/10 10:16:35;;;;;;;6.53;1.43;;;;;;;;;;4965315;28;20204;-63
2022/11/10 10:19:19;;;;;;;3.13;1.20;;;;;;;;;;4960373;28;20335;-64
2022/11/10 10:22:02;;;;;;;3.13;0.93;;;;;;;;;;4963474;28;20301;-63
2022/11/10 10:24:32;;;;;;;1.98;1.05;;;;;;;;;;4959609;28;20218;-63
2022/11/10 10:27:00;;;;;;;1.58;1.08;;;;;;;;;;4967197;28;20328;-64
2022/11/10 10:29:31;;;;;;;1.38;1.02;;;;;;;;;;4960136;28;20215;-63
2022/11/10 10:32:04;;;;;;;3.33;1.17;;;;;;;;;;4960806;28;20235;-64
2022/11/10 10:34:33;;;;;;;1.57;1.20;;;;;;;;;;4970216;28;20211;-62
2022/11/10 10:37:01;;;;;;;2.80;1.17;;;;;;;;;;4970127;28;20208;-62
2022/11/10 10:39:29;;;;;;;9.67;1.30;;;;;;;;;;4978797;28;20714;-63
2022/11/10 10:41:56;;;;;;;4.00;2.03;;;;;;;;;;4981319;28;20274;-64
2022/11/10 10:44:24;;;;;;;2.53;1.33;;;;;;;;;;4987938;28;20454;-62
2022/11/10 10:47:01;;;;;;;4.93;2.00;;;;;;;;;;4987680;28;20239;-62
2022/11/10 10:49:30;;;;;;;4.23;2.73;;;;;;;;;;4963422;28;20218;-62
2022/11/10 10:52:25;;;;;;;10.00;6.07;;;;;;;;;;4971620;28;20228;-62
2022/11/10 10:55:00;;;;;;;2.73;1.80;;;;;;;;;;4969278;28;20302;-64
2022/11/10 10:57:28;;;;;;;5.50;1.50;;;;;;;;;;4966883;28;20210;-63
2022/11/10 11:00:11;;;;;;;3.20;1.27;;;;;;;;;;4968317;28;20256;-64
2022/11/10 11:02:39;;;;;;;3.23;1.30;;;;;;;;;;4967238;28;20295;-63
2022/11/10 11:05:17;;;;;;;2.17;1.30;;;;;;;;;;4960115;28;20820;-64
2022/11/10 11:07:58;;;;;;;3.70;1.60;;;;;;;;;;4963657;28;21178;-63
2022/11/10 11:10:27;;;;;;;2.25;1.10;;;;;;;;;;4963414;28;20258;-64
2022/11/10 11:12:55;;;;;;;1.40;1.10;;;;;;;;;;4980053;28;20820;-64
2022/11/10 11:15:24;;;;;;;6.93;1.47;;;;;;;;;;4969830;28;20262;-64
2022/11/10 11:17:59;;;;;;;2.40;1.10;;;;;;;;;;4948969;28;20208;-64
2022/11/10 11:20:38;;;;;;;4.70;1.47;;;;;;;;;;4953739;28;20241;-64
2022/11/10 11:23:08;;;;;;;4.17;2.00;;;;;;;;;;4976378;28;20208;-64
2022/11/10 11:25:38;;;;;;;1.97;1.47;;;;;;;;;;4950669;28;20204;-64
2022/11/10 11:28:05;;;;;;;2.45;1.23;;;;;;;;;;4956774;28;20349;-64
2022/11/10 11:30:42;;;;;;;1.85;1.10;;;;;;;;;;4951446;28;20725;-63
2022/11/10 11:33:28;;;;;;;2.97;1.35;;;;;;;;;;4978870;28;20303;-64
2022/11/10 11:36:25;;;;;;;1.52;1.05;;;;;;;;;;4990747;28;20223;-64
2022/11/10 11:38:56;;;;;;;0.95;0.85;;;;;;;;;;4966810;28;20226;-64
2022/11/10 11:41:33;;;;;;;3.13;1.20;;;;;;;;;;4983208;28;20314;-64
2022/11/10 11:44:04;;;;;;;3.42;1.00;;;;;;;;;;4983213;28;20318;-64
2022/11/10 11:46:50;;;;;;;3.58;0.90;;;;;;;;;;4975847;28;20211;-64
2022/11/10 11:49:17;;;;;;;2.80;0.88;;;;;;;;;;4969987;28;20937;-64
2022/11/10 11:51:45;;;;;;;2.72;1.20;;;;;;;;;;4988635;28;20362;-64
2022/11/10 11:54:19;;;;;;;2.03;0.77;;;;;;;;;;4971034;28;21547;-64
2022/11/10 11:56:48;;;;;;;2.20;0.98;;;;;;;;;;4971920;28;21142;-64
2022/11/10 11:59:19;;;;;;;3.05;1.50;;;;;;;;;;4967947;28;20231;-65
2022/11/10 12:01:49;;;;;;;4.55;1.08;;;;;;;;;;4965893;28;20772;-65
2022/11/10 12:04:26;;;;;;;2.17;1.02;;;;;;;;;;4980205;28;20212;-64
2022/11/10 12:07:09;;;;;;;2.08;0.88;;;;;;;;;;4976502;28;20207;-63
2022/11/10 12:09:43;;;;;;;3.08;0.95;;;;;;;;;;4995416;28;20215;-63
2022/11/10 12:12:13;;;;;;;3.70;1.08;;;;;;;;;;4984754;28;20257;-64
2022/11/10 12:14:59;;;;;;;0.68;0.68;;;;;;;;;;4982012;28;20220;-63
2022/11/10 12:17:29;;;;;;;2.15;1.10;;;;;;;;;;4982893;28;20207;-64
2022/11/10 12:20:13;;;;;;;2.33;0.90;;;;;;;;;;4976468;28;20227;-63
2022/11/10 12:22:46;;;;;;;0.98;0.82;;;;;;;;;;4977692;28;20294;-64
2022/11/10 12:25:23;;;;;;;2.67;1.10;;;;;;;;;;4974857;28;20752;-64
2022/11/10 12:27:54;;;;;;;3.15;1.02;;;;;;;;;;4999409;28;20444;-64
2022/11/10 12:30:22;;;;;;;2.35;1.10;;;;;;;;;;4968649;28;20238;-64
2022/11/10 12:32:49;;;;;;;4.47;1.00;;;;;;;;;;4983997;28;20433;-64
2022/11/10 12:35:21;;;;;;;3.67;1.23;;;;;;;;;;4972613;28;20301;-64
2022/11/10 12:38:07;;;;;;;1.65;1.15;;;;;;;;;;4984478;28;20750;-64
2022/11/10 12:41:01;;;;;;;4.68;1.40;;;;;;;;;;4976059;28;20322;-64
2022/11/10 12:43:39;;;;;;;1.33;1.13;;;;;;;;;;4968625;28;20583;-64
2022/11/10 12:46:08;;;;;;;1.38;0.90;;;;;;;;;;4971524;28;20325;-64
2022/11/10 12:48:54;;;;;;;2.28;1.02;;;;;;;;;;4965093;28;20207;-64
2022/11/10 12:51:29;;;;;;;4.47;1.00;;;;;;;;;;4982158;28;20230;-64
2022/11/10 12:53:56;;;;;;;3.15;1.13;;;;;;;;;;4959263;28;20306;-64
2022/11/10 12:56:36;;;;;;;6.50;1.30;;;;;;;;;;4962156;28;20214;-64
2022/11/10 12:59:32;;;;;;;2.33;1.10;;;;;;;;;;4978564;28;20306;-64
2022/11/10 13:02:05;;;;;;;6.25;1.00;;;;;;;;;;4958362;28;21563;-64
2022/11/10 13:04:33;;;;;;;2.63;1.02;;;;;;;;;;4974121;28;20200;-64
2022/11/10 13:07:05;;;;;;;2.60;1.00;;;;;;;;;;4975709;28;20650;-63
2022/11/10 13:09:43;;;;;;;3.60;0.90;;;;;;;;;;4977154;28;20237;-64
2022/11/10 13:12:10;;;;;;;1.25;1.00;;;;;;;;;;4973826;28;20573;-64
2022/11/10 13:14:37;;;;;;;1.38;0.90;;;;;;;;;;4960853;28;20581;-64
2022/11/10 13:17:05;;;;;;;3.58;1.30;;;;;;;;;;4968727;28;20204;-63
2022/11/10 13:19:32;;;;;;;2.28;0.95;;;;;;;;;;4949486;28;20906;-63
2022/11/10 13:22:00;;;;;;;2.13;1.17;;;;;;;;;;4968267;28;20231;-64
2022/11/10 13:24:35;;;;;;;2.03;1.05;;;;;;;;;;4959559;28;20326;-64
2022/11/10 13:27:02;;;;;;;4.28;1.13;;;;;;;;;;4964276;28;20210;-63
2022/11/10 13:29:33;;;;;;;2.38;1.00;;;;;;;;;;4962666;28;20417;-63
2022/11/10 13:32:07;;;;;;;1.65;1.00;;;;;;;;;;4964457;28;20235;-64
2022/11/10 13:34:35;;;;;;;2.03;1.25;;;;;;;;;;4967351;28;20277;-64
2022/11/10 13:37:03;;;;;;;2.83;1.05;;;;;;;;;;4980806;28;20672;-64
2022/11/10 13:39:32;;;;;;;2.85;1.02;;;;;;;;;;4980534;28;20687;-64
2022/11/10 13:42:16;;;;;;;2.05;1.00;;;;;;;;;;4984610;28;20318;-64
2022/11/10 13:44:47;;;;;;;2.40;1.10;;;;;;;;;;4978090;28;20302;-65
2022/11/10 13:47:14;;;;;;;1.77;0.90;;;;;;;;;;4964347;28;20232;-64
2022/11/10 13:49:50;;;;;;;1.67;1.05;;;;;;;;;;4989408;28;20210;-64
2022/11/10 13:52:21;;;;;;;2.58;0.95;;;;;;;;;;4990811;28;20226;-65
2022/11/10 13:55:18;;;;;;;2.70;1.10;;;;;;;;;;4973503;28;20656;-64
2022/11/10 13:58:00;;;;;;;3.53;1.10;;;;;;;;;;4896244;28;20819;-64
2022/11/10 14:00:37;;;;;;;1.08;0.80;;;;;;;;;;4961345;28;20992;-64
2022/11/10 14:03:06;;;;;;;1.38;0.95;;;;;;;;;;4963517;28;20207;-65
2022/11/10 14:05:37;;;;;;;2.58;0.90;;;;;;;;;;4955240;28;20207;-64
2022/11/10 14:08:18;;;;;;;1.63;0.90;;;;;;;;;;4961951;28;20263;-64
2022/11/10 14:11:00;;;;;;;0.88;0.70;;;;;;;;;;4966387;28;20289;-65
2022/11/10 14:13:53;;;;;;;3.30;1.15;;;;;;;;;;4983382;28;20849;-64
2022/11/10 14:16:23;;;;;;;1.75;0.85;;;;;;;;;;4956032;28;20573;-64
2022/11/10 14:18:57;;;;;;;2.30;0.93;;;;;;;;;;4969924;28;20215;-64
2022/11/10 14:21:27;;;;;;;1.30;0.77;;;;;;;;;;4972855;28;20742;-63
2022/11/10 14:24:10;;;;;;;1.45;0.90;;;;;;;;;;4972017;28;20212;-64
2022/11/10 14:26:47;;;;;;;2.17;0.85;;;;;;;;;;4961983;28;20698;-65
2022/11/10 14:29:34;;;;;;;1.85;1.08;;;;;;;;;;4974798;28;20214;-64
2022/11/10 14:32:03;;;;;;;1.52;0.98;;;;;;;;;;4967128;28;20322;-64
2022/11/10 14:34:32;;;;;;;2.58;1.00;;;;;;;;;;4965927;28;20274;-65
2022/11/10 14:37:01;;;;;;;2.90;1.10;;;;;;;;;;4978105;28;20302;-64
2022/11/10 14:39:33;;;;;;;3.15;0.90;;;;;;;;;;4985631;28;20227;-64
2022/11/10 14:42:03;;;;;;;3.50;0.95;;;;;;;;;;4977672;28;20231;-65
2022/11/10 14:44:31;;;;;;;2.90;0.80;;;;;;;;;;4981856;28;20207;-64
2022/11/10 14:47:12;;;;;;;1.55;0.95;;;;;;;;;;4968309;28;20303;-64
2022/11/10 14:49:40;;;;;;;2.00;1.10;;;;;;;;;;4980919;28;20658;-64
2022/11/10 14:52:11;;;;;;;2.10;1.10;;;;;;;;;;4969080;28;20723;-64
2022/11/10 14:54:43;;;;;;;3.75;1.27;;;;;;;;;;4963524;28;20207;-64
2022/11/10 14:57:15;;;;;;;2.80;1.30;;;;;;;;;;4967634;28;20207;-64
2022/11/10 14:59:42;;;;;;;4.53;1.40;;;;;;;;;;4958726;28;20302;-65
2022/11/10 15:02:13;;;;;;;2.17;1.00;;;;;;;;;;4966761;28;20233;-64
2022/11/10 15:04:41;;;;;;;2.25;1.00;;;;;;;;;;4966849;28;20208;-64
2022/11/10 15:07:12;;;;;;;1.98;1.20;;;;;;;;;;4972851;28;20212;-64
2022/11/10 15:09:40;;;;;;;2.75;1.55;;;;;;;;;;4985898;28;20204;-64
2022/11/10 15:12:18;;;;;;;1.70;1.35;;;;;;;;;;4973048;28;20242;-64